sensor_id;sensor_type;location;lat;lon;timestamp;P1;durP1;ratioP1;P2;durP2;ratioP2
12181;SDS011;6154;51.550;12.138;2022-09-09T00:00:13;0.82;;;0.62;;
12181;SDS011;6154;51.550;12.138;2022-09-09T00:02:43;3.30;;;0.85;;
12181;SDS011;6154;51.550;12.138;2022-09-09T00:05:18;0.80;;;0.70;;
12181;SDS011;6154;51.550;12.138;2022-09-09T00:07:54;1.60;;;0.82;;
12181;SDS011;6154;51.550;12.138;2022-09-09T00:10:26;0.85;;;0.73;;
12181;SDS011;6154;51.550;12.138;2022-09-09T00:13:01;3.20;;;0.80;;
12181;SDS011;6154;51.550;12.138;2022-09-09T00:15:44;0.80;;;0.57;;
12181;SDS011;6154;51.550;12.138;2022-09-09T00:18:24;0.98;;;0.70;;
12181;SDS011;6154;51.550;12.138;2022-09-09T00:21:00;2.35;;;1.08;;
12181;SDS011;6154;51.550;12.138;2022-09-09T00:23:35;1.30;;;1.00;;
12181;SDS011;6154;51.550;12.138;2022-09-09T00:26:08;1.08;;;0.73;;
12181;SDS011;6154;51.550;12.138;2022-09-09T00:28:44;1.75;;;0.88;;
12181;SDS011;6154;51.550;12.138;2022-09-09T00:31:18;4.62;;;1.00;;
12181;SDS011;6154;51.550;12.138;2022-09-09T00:33:51;1.75;;;1.10;;
12181;SDS011;6154;51.550;12.138;2022-09-09T00:36:22;0.68;;;0.68;;
12181;SDS011;6154;51.550;12.138;2022-09-09T00:38:55;2.15;;;1.02;;
12181;SDS011;6154;51.550;12.138;2022-09-09T00:41:26;1.12;;;1.02;;
12181;SDS011;6154;51.550;12.138;2022-09-09T00:44:13;1.42;;;1.10;;
12181;SDS011;6154;51.550;12.138;2022-09-09T00:46:50;1.37;;;1.23;;
12181;SDS011;6154;51.550;12.138;2022-09-09T00:49:32;1.33;;;1.20;;
12181;SDS011;6154;51.550;12.138;2022-09-09T00:52:11;1.25;;;1.15;;
12181;SDS011;6154;51.550;12.138;2022-09-09T00:54:52;1.75;;;0.93;;
12181;SDS011;6154;51.550;12.138;2022-09-09T00:57:30;1.80;;;1.00;;
12181;SDS011;6154;51.550;12.138;2022-09-09T01:00:17;2.22;;;0.90;;
12181;SDS011;6154;51.550;12.138;2022-09-09T01:02:57;1.17;;;1.08;;
12181;SDS011;6154;51.550;12.138;2022-09-09T01:05:36;3.28;;;1.10;;
12181;SDS011;6154;51.550;12.138;2022-09-09T01:08:14;1.70;;;0.80;;
12181;SDS011;6154;51.550;12.138;2022-09-09T01:10:56;2.05;;;0.70;;
12181;SDS011;6154;51.550;12.138;2022-09-09T01:13:28;0.70;;;0.70;;
12181;SDS011;6154;51.550;12.138;2022-09-09T01:15:59;1.52;;;1.15;;
12181;SDS011;6154;51.550;12.138;2022-09-09T01:18:31;3.78;;;1.08;;
12181;SDS011;6154;51.550;12.138;2022-09-09T01:21:05;2.90;;;0.93;;
12181;SDS011;6154;51.550;12.138;2022-09-09T01:23:45;1.45;;;1.00;;
12181;SDS011;6154;51.550;12.138;2022-09-09T01:26:31;1.00;;;0.80;;
12181;SDS011;6154;51.550;12.138;2022-09-09T01:29:06;1.65;;;1.00;;
12181;SDS011;6154;51.550;12.138;2022-09-09T01:31:37;1.33;;;0.65;;
12181;SDS011;6154;51.550;12.138;2022-09-09T01:34:09;2.17;;;1.02;;
12181;SDS011;6154;51.550;12.138;2022-09-09T01:36:41;1.40;;;0.98;;
12181;SDS011;6154;51.550;12.138;2022-09-09T01:39:15;1.37;;;1.00;;
12181;SDS011;6154;51.550;12.138;2022-09-09T01:41:45;3.65;;;1.23;;
12181;SDS011;6154;51.550;12.138;2022-09-09T01:44:15;3.05;;;0.90;;
12181;SDS011;6154;51.550;12.138;2022-09-09T01:46:45;0.85;;;0.85;;
12181;SDS011;6154;51.550;12.138;2022-09-09T01:49:14;1.83;;;1.10;;
12181;SDS011;6154;51.550;12.138;2022-09-09T01:51:42;1.23;;;1.08;;
12181;SDS011;6154;51.550;12.138;2022-09-09T01:54:12;1.37;;;1.02;;
12181;SDS011;6154;51.550;12.138;2022-09-09T01:56:43;2.92;;;1.02;;
12181;SDS011;6154;51.550;12.138;2022-09-09T01:59:28;1.65;;;0.90;;
12181;SDS011;6154;51.550;12.138;2022-09-09T02:02:10;2.67;;;1.02;;
12181;SDS011;6154;51.550;12.138;2022-09-09T02:04:44;3.17;;;1.00;;
12181;SDS011;6154;51.550;12.138;2022-09-09T02:07:19;4.75;;;1.15;;
12181;SDS011;6154;51.550;12.138;2022-09-09T02:09:57;0.77;;;0.77;;
12181;SDS011;6154;51.550;12.138;2022-09-09T02:12:31;4.05;;;1.17;;
12181;SDS011;6154;51.550;12.138;2022-09-09T02:15:00;3.20;;;0.95;;
12181;SDS011;6154;51.550;12.138;2022-09-09T02:17:35;2.97;;;1.02;;
12181;SDS011;6154;51.550;12.138;2022-09-09T02:20:07;1.20;;;0.90;;
12181;SDS011;6154;51.550;12.138;2022-09-09T02:22:41;1.02;;;0.68;;
12181;SDS011;6154;51.550;12.138;2022-09-09T02:25:13;6.03;;;1.05;;
12181;SDS011;6154;51.550;12.138;2022-09-09T02:27:46;2.08;;;1.02;;
12181;SDS011;6154;51.550;12.138;2022-09-09T02:30:18;2.60;;;1.02;;
12181;SDS011;6154;51.550;12.138;2022-09-09T02:32:48;2.87;;;1.27;;
12181;SDS011;6154;51.550;12.138;2022-09-09T02:35:24;0.93;;;0.80;;
12181;SDS011;6154;51.550;12.138;2022-09-09T02:37:55;0.98;;;0.65;;
12181;SDS011;6154;51.550;12.138;2022-09-09T02:40:28;4.28;;;1.00;;
12181;SDS011;6154;51.550;12.138;2022-09-09T02:42:58;0.77;;;0.77;;
12181;SDS011;6154;51.550;12.138;2022-09-09T02:45:29;1.00;;;0.70;;
12181;SDS011;6154;51.550;12.138;2022-09-09T02:48:06;1.25;;;0.75;;
12181;SDS011;6154;51.550;12.138;2022-09-09T02:50:44;0.75;;;0.73;;
12181;SDS011;6154;51.550;12.138;2022-09-09T02:53:22;2.85;;;1.10;;
12181;SDS011;6154;51.550;12.138;2022-09-09T02:55:58;3.70;;;0.90;;
12181;SDS011;6154;51.550;12.138;2022-09-09T02:58:33;1.15;;;0.85;;
12181;SDS011;6154;51.550;12.138;2022-09-09T03:01:03;1.12;;;0.98;;
12181;SDS011;6154;51.550;12.138;2022-09-09T03:03:31;1.40;;;1.25;;
12181;SDS011;6154;51.550;12.138;2022-09-09T03:06:01;2.28;;;0.80;;
12181;SDS011;6154;51.550;12.138;2022-09-09T03:08:29;2.62;;;1.23;;
12181;SDS011;6154;51.550;12.138;2022-09-09T03:10:58;3.30;;;1.00;;
12181;SDS011;6154;51.550;12.138;2022-09-09T03:13:28;1.00;;;0.55;;
12181;SDS011;6154;51.550;12.138;2022-09-09T03:15:58;0.95;;;0.82;;
12181;SDS011;6154;51.550;12.138;2022-09-09T03:18:28;0.82;;;0.82;;
12181;SDS011;6154;51.550;12.138;2022-09-09T03:20:56;2.00;;;1.08;;
12181;SDS011;6154;51.550;12.138;2022-09-09T03:23:27;1.20;;;0.80;;
12181;SDS011;6154;51.550;12.138;2022-09-09T03:25:56;1.33;;;0.60;;
12181;SDS011;6154;51.550;12.138;2022-09-09T03:28:25;0.88;;;0.70;;
12181;SDS011;6154;51.550;12.138;2022-09-09T03:31:00;3.75;;;0.80;;
12181;SDS011;6154;51.550;12.138;2022-09-09T03:33:31;1.42;;;0.68;;
12181;SDS011;6154;51.550;12.138;2022-09-09T03:36:01;1.52;;;0.90;;
12181;SDS011;6154;51.550;12.138;2022-09-09T03:38:32;0.77;;;0.75;;
12181;SDS011;6154;51.550;12.138;2022-09-09T03:41:00;1.23;;;0.68;;
12181;SDS011;6154;51.550;12.138;2022-09-09T03:43:29;3.15;;;0.70;;
12181;SDS011;6154;51.550;12.138;2022-09-09T03:45:57;2.37;;;0.70;;
12181;SDS011;6154;51.550;12.138;2022-09-09T03:48:27;2.72;;;1.02;;
12181;SDS011;6154;51.550;12.138;2022-09-09T03:50:56;1.65;;;1.00;;
12181;SDS011;6154;51.550;12.138;2022-09-09T03:53:27;0.80;;;0.80;;
12181;SDS011;6154;51.550;12.138;2022-09-09T03:55:56;7.70;;;0.82;;
12181;SDS011;6154;51.550;12.138;2022-09-09T03:58:26;0.70;;;0.70;;
12181;SDS011;6154;51.550;12.138;2022-09-09T04:00:55;3.28;;;0.90;;
12181;SDS011;6154;51.550;12.138;2022-09-09T04:03:26;1.02;;;0.90;;
12181;SDS011;6154;51.550;12.138;2022-09-09T04:05:57;3.65;;;1.20;;
12181;SDS011;6154;51.550;12.138;2022-09-09T04:08:27;4.00;;;1.00;;
12181;SDS011;6154;51.550;12.138;2022-09-09T04:10:55;1.37;;;0.93;;
12181;SDS011;6154;51.550;12.138;2022-09-09T04:13:25;1.85;;;1.25;;
12181;SDS011;6154;51.550;12.138;2022-09-09T04:15:55;3.72;;;1.00;;
12181;SDS011;6154;51.550;12.138;2022-09-09T04:18:25;1.73;;;1.30;;
12181;SDS011;6154;51.550;12.138;2022-09-09T04:20:56;1.77;;;0.98;;
12181;SDS011;6154;51.550;12.138;2022-09-09T04:23:25;1.40;;;1.12;;
12181;SDS011;6154;51.550;12.138;2022-09-09T04:25:56;1.20;;;0.90;;
12181;SDS011;6154;51.550;12.138;2022-09-09T04:28:26;0.90;;;0.90;;
12181;SDS011;6154;51.550;12.138;2022-09-09T04:30:56;1.12;;;0.82;;
12181;SDS011;6154;51.550;12.138;2022-09-09T04:33:25;1.40;;;1.05;;
12181;SDS011;6154;51.550;12.138;2022-09-09T04:35:54;6.03;;;0.90;;
12181;SDS011;6154;51.550;12.138;2022-09-09T04:38:24;2.12;;;0.85;;
12181;SDS011;6154;51.550;12.138;2022-09-09T04:40:52;0.80;;;0.80;;
12181;SDS011;6154;51.550;12.138;2022-09-09T04:43:21;1.65;;;0.88;;
12181;SDS011;6154;51.550;12.138;2022-09-09T04:45:52;1.95;;;0.80;;
12181;SDS011;6154;51.550;12.138;2022-09-09T04:48:21;0.90;;;0.62;;
12181;SDS011;6154;51.550;12.138;2022-09-09T04:50:57;1.33;;;0.80;;
12181;SDS011;6154;51.550;12.138;2022-09-09T04:53:26;2.70;;;0.90;;
12181;SDS011;6154;51.550;12.138;2022-09-09T04:56:00;4.37;;;1.10;;
12181;SDS011;6154;51.550;12.138;2022-09-09T04:58:30;2.62;;;1.25;;
12181;SDS011;6154;51.550;12.138;2022-09-09T05:01:05;1.23;;;0.88;;
12181;SDS011;6154;51.550;12.138;2022-09-09T05:03:35;2.40;;;0.98;;
12181;SDS011;6154;51.550;12.138;2022-09-09T05:06:07;2.70;;;1.10;;
12181;SDS011;6154;51.550;12.138;2022-09-09T05:08:37;1.08;;;0.75;;
12181;SDS011;6154;51.550;12.138;2022-09-09T05:11:13;2.67;;;0.82;;
12181;SDS011;6154;51.550;12.138;2022-09-09T05:13:42;0.73;;;0.73;;
12181;SDS011;6154;51.550;12.138;2022-09-09T05:16:11;1.55;;;1.08;;
12181;SDS011;6154;51.550;12.138;2022-09-09T05:18:39;1.40;;;0.77;;
12181;SDS011;6154;51.550;12.138;2022-09-09T05:21:11;2.70;;;0.95;;
12181;SDS011;6154;51.550;12.138;2022-09-09T05:23:40;4.65;;;0.62;;
12181;SDS011;6154;51.550;12.138;2022-09-09T05:26:09;0.60;;;0.60;;
12181;SDS011;6154;51.550;12.138;2022-09-09T05:28:45;1.30;;;0.75;;
12181;SDS011;6154;51.550;12.138;2022-09-09T05:31:13;0.82;;;0.70;;
12181;SDS011;6154;51.550;12.138;2022-09-09T05:33:44;0.65;;;0.65;;
12181;SDS011;6154;51.550;12.138;2022-09-09T05:36:17;0.95;;;0.80;;
12181;SDS011;6154;51.550;12.138;2022-09-09T05:38:48;2.85;;;0.85;;
12181;SDS011;6154;51.550;12.138;2022-09-09T05:41:19;1.87;;;0.70;;
12181;SDS011;6154;51.550;12.138;2022-09-09T05:43:49;1.15;;;0.93;;
12181;SDS011;6154;51.550;12.138;2022-09-09T05:46:19;0.80;;;0.80;;
12181;SDS011;6154;51.550;12.138;2022-09-09T05:48:49;1.27;;;0.73;;
12181;SDS011;6154;51.550;12.138;2022-09-09T05:51:22;1.12;;;0.77;;
12181;SDS011;6154;51.550;12.138;2022-09-09T05:53:51;3.40;;;0.50;;
12181;SDS011;6154;51.550;12.138;2022-09-09T05:56:21;1.45;;;0.65;;
12181;SDS011;6154;51.550;12.138;2022-09-09T05:58:51;1.12;;;0.77;;
12181;SDS011;6154;51.550;12.138;2022-09-09T06:01:22;1.00;;;0.88;;
12181;SDS011;6154;51.550;12.138;2022-09-09T06:03:52;1.75;;;0.98;;
12181;SDS011;6154;51.550;12.138;2022-09-09T06:06:23;1.48;;;0.57;;
12181;SDS011;6154;51.550;12.138;2022-09-09T06:08:54;0.57;;;0.55;;
12181;SDS011;6154;51.550;12.138;2022-09-09T06:11:25;0.60;;;0.60;;
12181;SDS011;6154;51.550;12.138;2022-09-09T06:13:54;2.70;;;0.73;;
12181;SDS011;6154;51.550;12.138;2022-09-09T06:16:24;3.25;;;1.00;;
12181;SDS011;6154;51.550;12.138;2022-09-09T06:18:54;0.90;;;0.60;;
12181;SDS011;6154;51.550;12.138;2022-09-09T06:21:26;1.10;;;1.00;;
12181;SDS011;6154;51.550;12.138;2022-09-09T06:23:56;0.80;;;0.80;;
12181;SDS011;6154;51.550;12.138;2022-09-09T06:26:27;0.70;;;0.70;;
12181;SDS011;6154;51.550;12.138;2022-09-09T06:28:59;2.50;;;0.80;;
12181;SDS011;6154;51.550;12.138;2022-09-09T06:31:31;1.12;;;0.70;;
12181;SDS011;6154;51.550;12.138;2022-09-09T06:34:03;0.55;;;0.55;;
12181;SDS011;6154;51.550;12.138;2022-09-09T06:36:34;1.23;;;0.62;;
12181;SDS011;6154;51.550;12.138;2022-09-09T06:39:04;2.80;;;0.60;;
12181;SDS011;6154;51.550;12.138;2022-09-09T06:41:40;2.85;;;0.60;;
12181;SDS011;6154;51.550;12.138;2022-09-09T06:44:12;2.45;;;0.68;;
12181;SDS011;6154;51.550;12.138;2022-09-09T06:46:41;1.83;;;0.68;;
12181;SDS011;6154;51.550;12.138;2022-09-09T06:49:10;1.58;;;0.60;;
12181;SDS011;6154;51.550;12.138;2022-09-09T06:51:39;1.87;;;0.60;;
12181;SDS011;6154;51.550;12.138;2022-09-09T06:54:10;0.95;;;0.77;;
12181;SDS011;6154;51.550;12.138;2022-09-09T06:56:40;0.52;;;0.50;;
12181;SDS011;6154;51.550;12.138;2022-09-09T06:59:10;1.00;;;0.50;;
12181;SDS011;6154;51.550;12.138;2022-09-09T07:01:40;1.58;;;0.50;;
12181;SDS011;6154;51.550;12.138;2022-09-09T07:04:10;0.75;;;0.50;;
12181;SDS011;6154;51.550;12.138;2022-09-09T07:06:42;1.67;;;0.70;;
12181;SDS011;6154;51.550;12.138;2022-09-09T07:09:12;1.98;;;0.50;;
12181;SDS011;6154;51.550;12.138;2022-09-09T07:11:42;3.15;;;0.60;;
12181;SDS011;6154;51.550;12.138;2022-09-09T07:14:12;1.95;;;0.73;;
12181;SDS011;6154;51.550;12.138;2022-09-09T07:16:41;1.10;;;0.62;;
12181;SDS011;6154;51.550;12.138;2022-09-09T07:19:09;2.08;;;0.60;;
12181;SDS011;6154;51.550;12.138;2022-09-09T07:21:38;1.17;;;0.68;;
12181;SDS011;6154;51.550;12.138;2022-09-09T07:24:09;1.55;;;0.62;;
12181;SDS011;6154;51.550;12.138;2022-09-09T07:26:40;0.85;;;0.62;;
12181;SDS011;6154;51.550;12.138;2022-09-09T07:29:08;0.43;;;0.40;;
12181;SDS011;6154;51.550;12.138;2022-09-09T07:31:38;0.98;;;0.65;;
12181;SDS011;6154;51.550;12.138;2022-09-09T07:34:07;4.07;;;0.80;;
12181;SDS011;6154;51.550;12.138;2022-09-09T07:36:36;0.75;;;0.45;;
12181;SDS011;6154;51.550;12.138;2022-09-09T07:39:06;1.12;;;0.62;;
12181;SDS011;6154;51.550;12.138;2022-09-09T07:41:38;3.17;;;0.65;;
12181;SDS011;6154;51.550;12.138;2022-09-09T07:44:08;1.27;;;0.32;;
12181;SDS011;6154;51.550;12.138;2022-09-09T07:46:39;0.57;;;0.50;;
12181;SDS011;6154;51.550;12.138;2022-09-09T07:49:08;3.20;;;0.82;;
12181;SDS011;6154;51.550;12.138;2022-09-09T07:51:38;2.75;;;0.70;;
12181;SDS011;6154;51.550;12.138;2022-09-09T07:54:10;0.80;;;0.40;;
12181;SDS011;6154;51.550;12.138;2022-09-09T07:56:40;1.27;;;0.50;;
12181;SDS011;6154;51.550;12.138;2022-09-09T07:59:09;3.37;;;0.93;;
12181;SDS011;6154;51.550;12.138;2022-09-09T08:01:40;4.90;;;0.45;;
12181;SDS011;6154;51.550;12.138;2022-09-09T08:04:11;4.57;;;0.45;;
12181;SDS011;6154;51.550;12.138;2022-09-09T08:06:44;1.42;;;0.50;;
12181;SDS011;6154;51.550;12.138;2022-09-09T08:09:16;1.65;;;0.80;;
12181;SDS011;6154;51.550;12.138;2022-09-09T08:11:45;1.02;;;0.55;;
12181;SDS011;6154;51.550;12.138;2022-09-09T08:14:13;0.57;;;0.47;;
12181;SDS011;6154;51.550;12.138;2022-09-09T08:16:43;1.27;;;0.70;;
12181;SDS011;6154;51.550;12.138;2022-09-09T08:19:12;0.95;;;0.55;;
12181;SDS011;6154;51.550;12.138;2022-09-09T08:21:43;2.17;;;0.50;;
12181;SDS011;6154;51.550;12.138;2022-09-09T08:24:12;0.73;;;0.40;;
12181;SDS011;6154;51.550;12.138;2022-09-09T08:26:45;1.87;;;0.57;;
12181;SDS011;6154;51.550;12.138;2022-09-09T08:29:16;3.60;;;0.52;;
12181;SDS011;6154;51.550;12.138;2022-09-09T08:31:46;2.00;;;0.65;;
12181;SDS011;6154;51.550;12.138;2022-09-09T08:34:15;0.20;;;0.20;;
12181;SDS011;6154;51.550;12.138;2022-09-09T08:36:48;2.00;;;0.40;;
12181;SDS011;6154;51.550;12.138;2022-09-09T08:39:19;1.23;;;0.60;;
12181;SDS011;6154;51.550;12.138;2022-09-09T08:41:59;3.67;;;0.70;;
12181;SDS011;6154;51.550;12.138;2022-09-09T08:44:45;2.80;;;0.88;;
12181;SDS011;6154;51.550;12.138;2022-09-09T08:47:26;2.37;;;0.50;;
12181;SDS011;6154;51.550;12.138;2022-09-09T08:50:05;1.27;;;0.60;;
12181;SDS011;6154;51.550;12.138;2022-09-09T08:52:48;0.30;;;0.30;;
12181;SDS011;6154;51.550;12.138;2022-09-09T08:55:22;1.52;;;0.40;;
12181;SDS011;6154;51.550;12.138;2022-09-09T08:57:59;2.20;;;0.60;;
12181;SDS011;6154;51.550;12.138;2022-09-09T09:00:36;2.83;;;0.40;;
12181;SDS011;6154;51.550;12.138;2022-09-09T09:03:14;1.90;;;0.57;;
12181;SDS011;6154;51.550;12.138;2022-09-09T09:05:51;1.02;;;0.30;;
12181;SDS011;6154;51.550;12.138;2022-09-09T09:08:30;1.42;;;0.32;;
12181;SDS011;6154;51.550;12.138;2022-09-09T09:11:05;2.53;;;0.70;;
12181;SDS011;6154;51.550;12.138;2022-09-09T09:13:37;2.03;;;0.40;;
12181;SDS011;6154;51.550;12.138;2022-09-09T09:16:14;3.20;;;0.50;;
12181;SDS011;6154;51.550;12.138;2022-09-09T09:18:50;4.82;;;0.70;;
12181;SDS011;6154;51.550;12.138;2022-09-09T09:21:20;2.45;;;0.50;;
12181;SDS011;6154;51.550;12.138;2022-09-09T09:23:54;1.35;;;0.80;;
12181;SDS011;6154;51.550;12.138;2022-09-09T09:26:25;1.05;;;0.30;;
12181;SDS011;6154;51.550;12.138;2022-09-09T09:29:00;1.33;;;0.40;;
12181;SDS011;6154;51.550;12.138;2022-09-09T09:31:41;1.62;;;0.50;;
12181;SDS011;6154;51.550;12.138;2022-09-09T09:34:11;2.65;;;0.50;;
12181;SDS011;6154;51.550;12.138;2022-09-09T09:36:40;0.60;;;0.30;;
12181;SDS011;6154;51.550;12.138;2022-09-09T09:39:21;3.12;;;0.62;;
12181;SDS011;6154;51.550;12.138;2022-09-09T09:42:11;1.58;;;0.30;;
12181;SDS011;6154;51.550;12.138;2022-09-09T09:44:48;5.32;;;0.40;;
12181;SDS011;6154;51.550;12.138;2022-09-09T09:47:17;3.53;;;0.45;;
12181;SDS011;6154;51.550;12.138;2022-09-09T09:49:51;1.60;;;0.40;;
12181;SDS011;6154;51.550;12.138;2022-09-09T09:52:21;2.25;;;0.45;;
12181;SDS011;6154;51.550;12.138;2022-09-09T09:54:52;1.52;;;0.40;;
12181;SDS011;6154;51.550;12.138;2022-09-09T09:57:22;1.45;;;0.50;;
12181;SDS011;6154;51.550;12.138;2022-09-09T10:00:12;1.75;;;0.60;;
12181;SDS011;6154;51.550;12.138;2022-09-09T10:02:45;2.53;;;0.60;;
12181;SDS011;6154;51.550;12.138;2022-09-09T10:05:15;4.57;;;0.57;;
12181;SDS011;6154;51.550;12.138;2022-09-09T10:08:03;2.50;;;1.02;;
12181;SDS011;6154;51.550;12.138;2022-09-09T10:10:46;1.55;;;0.50;;
12181;SDS011;6154;51.550;12.138;2022-09-09T10:13:35;3.87;;;0.55;;
12181;SDS011;6154;51.550;12.138;2022-09-09T10:16:16;1.50;;;0.82;;
12181;SDS011;6154;51.550;12.138;2022-09-09T10:18:57;0.60;;;0.52;;
12181;SDS011;6154;51.550;12.138;2022-09-09T10:21:33;2.55;;;0.50;;
12181;SDS011;6154;51.550;12.138;2022-09-09T10:24:22;0.95;;;0.35;;
12181;SDS011;6154;51.550;12.138;2022-09-09T10:27:03;0.47;;;0.32;;
12181;SDS011;6154;51.550;12.138;2022-09-09T10:29:46;0.95;;;0.37;;
12181;SDS011;6154;51.550;12.138;2022-09-09T10:32:40;2.35;;;0.60;;
12181;SDS011;6154;51.550;12.138;2022-09-09T10:35:24;1.75;;;0.65;;
12181;SDS011;6154;51.550;12.138;2022-09-09T10:38:13;3.12;;;0.68;;
12181;SDS011;6154;51.550;12.138;2022-09-09T10:40:46;1.48;;;0.60;;
12181;SDS011;6154;51.550;12.138;2022-09-09T10:43:39;1.55;;;0.40;;
12181;SDS011;6154;51.550;12.138;2022-09-09T10:46:28;1.65;;;0.47;;
12181;SDS011;6154;51.550;12.138;2022-09-09T10:49:09;1.80;;;0.57;;
12181;SDS011;6154;51.550;12.138;2022-09-09T10:51:51;1.83;;;0.37;;
12181;SDS011;6154;51.550;12.138;2022-09-09T10:54:32;1.73;;;0.60;;
12181;SDS011;6154;51.550;12.138;2022-09-09T10:57:14;1.80;;;0.45;;
12181;SDS011;6154;51.550;12.138;2022-09-09T10:59:48;0.95;;;0.40;;
12181;SDS011;6154;51.550;12.138;2022-09-09T11:02:22;2.80;;;0.70;;
12181;SDS011;6154;51.550;12.138;2022-09-09T11:04:57;1.27;;;0.50;;
12181;SDS011;6154;51.550;12.138;2022-09-09T11:07:30;2.55;;;0.60;;
12181;SDS011;6154;51.550;12.138;2022-09-09T11:10:06;1.65;;;0.40;;
12181;SDS011;6154;51.550;12.138;2022-09-09T11:12:45;0.47;;;0.35;;
12181;SDS011;6154;51.550;12.138;2022-09-09T11:15:17;4.32;;;0.90;;
12181;SDS011;6154;51.550;12.138;2022-09-09T11:17:52;1.92;;;0.60;;
12181;SDS011;6154;51.550;12.138;2022-09-09T11:20:25;0.47;;;0.45;;
12181;SDS011;6154;51.550;12.138;2022-09-09T11:22:54;1.10;;;0.50;;
12181;SDS011;6154;51.550;12.138;2022-09-09T11:25:29;1.60;;;0.50;;
12181;SDS011;6154;51.550;12.138;2022-09-09T11:28:07;1.83;;;0.77;;
12181;SDS011;6154;51.550;12.138;2022-09-09T11:30:59;2.58;;;0.50;;
12181;SDS011;6154;51.550;12.138;2022-09-09T11:33:53;0.60;;;0.37;;
12181;SDS011;6154;51.550;12.138;2022-09-09T11:36:41;4.18;;;0.37;;
12181;SDS011;6154;51.550;12.138;2022-09-09T11:39:33;0.77;;;0.40;;
12181;SDS011;6154;51.550;12.138;2022-09-09T11:42:15;1.58;;;0.22;;
12181;SDS011;6154;51.550;12.138;2022-09-09T11:44:46;2.17;;;0.37;;
12181;SDS011;6154;51.550;12.138;2022-09-09T11:47:16;1.10;;;0.43;;
12181;SDS011;6154;51.550;12.138;2022-09-09T11:49:48;2.08;;;0.40;;
12181;SDS011;6154;51.550;12.138;2022-09-09T11:52:22;0.75;;;0.30;;
12181;SDS011;6154;51.550;12.138;2022-09-09T11:54:54;0.52;;;0.28;;
12181;SDS011;6154;51.550;12.138;2022-09-09T11:57:24;1.77;;;0.70;;
12181;SDS011;6154;51.550;12.138;2022-09-09T11:59:58;2.00;;;0.40;;
12181;SDS011;6154;51.550;12.138;2022-09-09T12:02:37;0.77;;;0.40;;
12181;SDS011;6154;51.550;12.138;2022-09-09T12:05:17;0.35;;;0.22;;
12181;SDS011;6154;51.550;12.138;2022-09-09T12:07:49;1.05;;;0.40;;
12181;SDS011;6154;51.550;12.138;2022-09-09T12:10:22;0.75;;;0.30;;
12181;SDS011;6154;51.550;12.138;2022-09-09T12:12:52;1.00;;;0.55;;
12181;SDS011;6154;51.550;12.138;2022-09-09T12:15:22;3.35;;;0.45;;
12181;SDS011;6154;51.550;12.138;2022-09-09T12:17:55;1.65;;;0.60;;
12181;SDS011;6154;51.550;12.138;2022-09-09T12:20:34;0.88;;;0.43;;
12181;SDS011;6154;51.550;12.138;2022-09-09T12:23:20;3.35;;;0.50;;
12181;SDS011;6154;51.550;12.138;2022-09-09T12:25:57;2.10;;;0.57;;
12181;SDS011;6154;51.550;12.138;2022-09-09T12:28:42;3.00;;;0.65;;
12181;SDS011;6154;51.550;12.138;2022-09-09T12:31:21;0.60;;;0.37;;
12181;SDS011;6154;51.550;12.138;2022-09-09T12:33:53;3.30;;;0.40;;
12181;SDS011;6154;51.550;12.138;2022-09-09T12:36:21;0.90;;;0.40;;
12181;SDS011;6154;51.550;12.138;2022-09-09T12:38:56;0.45;;;0.30;;
12181;SDS011;6154;51.550;12.138;2022-09-09T12:41:37;1.27;;;0.30;;
12181;SDS011;6154;51.550;12.138;2022-09-09T12:44:05;1.92;;;0.30;;
12181;SDS011;6154;51.550;12.138;2022-09-09T12:46:36;4.32;;;0.43;;
12181;SDS011;6154;51.550;12.138;2022-09-09T12:49:20;1.75;;;0.35;;
12181;SDS011;6154;51.550;12.138;2022-09-09T12:51:54;0.68;;;0.35;;
12181;SDS011;6154;51.550;12.138;2022-09-09T12:54:25;0.93;;;0.52;;
12181;SDS011;6154;51.550;12.138;2022-09-09T12:56:54;1.90;;;0.40;;
12181;SDS011;6154;51.550;12.138;2022-09-09T12:59:23;1.62;;;0.40;;
12181;SDS011;6154;51.550;12.138;2022-09-09T13:01:55;0.90;;;0.30;;
12181;SDS011;6154;51.550;12.138;2022-09-09T13:04:25;0.30;;;0.30;;
12181;SDS011;6154;51.550;12.138;2022-09-09T13:06:53;1.12;;;0.40;;
12181;SDS011;6154;51.550;12.138;2022-09-09T13:09:21;0.85;;;0.50;;
12181;SDS011;6154;51.550;12.138;2022-09-09T13:11:52;0.25;;;0.22;;
12181;SDS011;6154;51.550;12.138;2022-09-09T13:14:26;3.87;;;0.50;;
12181;SDS011;6154;51.550;12.138;2022-09-09T13:16:59;3.08;;;0.60;;
12181;SDS011;6154;51.550;12.138;2022-09-09T13:19:33;1.55;;;0.30;;
12181;SDS011;6154;51.550;12.138;2022-09-09T13:22:11;1.55;;;0.32;;
12181;SDS011;6154;51.550;12.138;2022-09-09T13:24:40;1.45;;;0.20;;
12181;SDS011;6154;51.550;12.138;2022-09-09T13:27:22;2.15;;;0.30;;
12181;SDS011;6154;51.550;12.138;2022-09-09T13:30:01;2.03;;;0.35;;
12181;SDS011;6154;51.550;12.138;2022-09-09T13:32:29;2.95;;;0.32;;
12181;SDS011;6154;51.550;12.138;2022-09-09T13:34:58;0.57;;;0.30;;
12181;SDS011;6154;51.550;12.138;2022-09-09T13:37:30;0.65;;;0.28;;
12181;SDS011;6154;51.550;12.138;2022-09-09T13:40:02;1.60;;;0.35;;
12181;SDS011;6154;51.550;12.138;2022-09-09T13:42:34;0.57;;;0.30;;
12181;SDS011;6154;51.550;12.138;2022-09-09T13:45:14;1.80;;;0.50;;
12181;SDS011;6154;51.550;12.138;2022-09-09T13:47:47;2.90;;;0.47;;
12181;SDS011;6154;51.550;12.138;2022-09-09T13:50:19;4.57;;;0.70;;
12181;SDS011;6154;51.550;12.138;2022-09-09T13:52:49;0.68;;;0.22;;
12181;SDS011;6154;51.550;12.138;2022-09-09T13:55:20;0.95;;;0.30;;
12181;SDS011;6154;51.550;12.138;2022-09-09T13:57:52;0.90;;;0.32;;
12181;SDS011;6154;51.550;12.138;2022-09-09T14:00:21;2.87;;;0.43;;
12181;SDS011;6154;51.550;12.138;2022-09-09T14:02:50;0.55;;;0.30;;
12181;SDS011;6154;51.550;12.138;2022-09-09T14:05:21;2.67;;;0.37;;
12181;SDS011;6154;51.550;12.138;2022-09-09T14:07:49;0.25;;;0.25;;
12181;SDS011;6154;51.550;12.138;2022-09-09T14:10:19;1.00;;;0.30;;
12181;SDS011;6154;51.550;12.138;2022-09-09T14:12:48;2.12;;;0.37;;
12181;SDS011;6154;51.550;12.138;2022-09-09T14:15:18;3.75;;;0.20;;
12181;SDS011;6154;51.550;12.138;2022-09-09T14:17:46;0.55;;;0.30;;
12181;SDS011;6154;51.550;12.138;2022-09-09T14:20:15;1.15;;;0.20;;
12181;SDS011;6154;51.550;12.138;2022-09-09T14:22:44;0.47;;;0.30;;
12181;SDS011;6154;51.550;12.138;2022-09-09T14:25:12;0.73;;;0.40;;
12181;SDS011;6154;51.550;12.138;2022-09-09T14:27:40;1.10;;;0.37;;
12181;SDS011;6154;51.550;12.138;2022-09-09T14:30:09;0.60;;;0.20;;
12181;SDS011;6154;51.550;12.138;2022-09-09T14:32:39;1.70;;;0.30;;
12181;SDS011;6154;51.550;12.138;2022-09-09T14:35:07;2.35;;;0.30;;
12181;SDS011;6154;51.550;12.138;2022-09-09T14:37:36;0.35;;;0.22;;
12181;SDS011;6154;51.550;12.138;2022-09-09T14:40:06;0.73;;;0.20;;
12181;SDS011;6154;51.550;12.138;2022-09-09T14:42:35;2.17;;;0.43;;
12181;SDS011;6154;51.550;12.138;2022-09-09T14:45:03;1.60;;;0.20;;
12181;SDS011;6154;51.550;12.138;2022-09-09T14:47:32;0.32;;;0.20;;
12181;SDS011;6154;51.550;12.138;2022-09-09T14:50:01;0.65;;;0.20;;
12181;SDS011;6154;51.550;12.138;2022-09-09T14:52:30;1.87;;;0.37;;
12181;SDS011;6154;51.550;12.138;2022-09-09T14:54:58;0.60;;;0.20;;
12181;SDS011;6154;51.550;12.138;2022-09-09T14:57:26;4.87;;;0.30;;
12181;SDS011;6154;51.550;12.138;2022-09-09T14:59:54;1.50;;;0.32;;
12181;SDS011;6154;51.550;12.138;2022-09-09T15:02:23;0.88;;;0.22;;
12181;SDS011;6154;51.550;12.138;2022-09-09T15:04:51;0.70;;;0.20;;
12181;SDS011;6154;51.550;12.138;2022-09-09T15:07:21;0.75;;;0.30;;
12181;SDS011;6154;51.550;12.138;2022-09-09T15:09:49;1.00;;;0.17;;
12181;SDS011;6154;51.550;12.138;2022-09-09T15:12:18;0.10;;;0.10;;
12181;SDS011;6154;51.550;12.138;2022-09-09T15:14:47;0.40;;;0.17;;
12181;SDS011;6154;51.550;12.138;2022-09-09T15:17:15;0.90;;;0.20;;
12181;SDS011;6154;51.550;12.138;2022-09-09T15:19:43;2.22;;;0.30;;
12181;SDS011;6154;51.550;12.138;2022-09-09T15:22:12;2.20;;;0.30;;